Time;durP1;ratioP1;P1;durP2;ratioP2;P2;SDS_P1;SDS_P2;PMS_P1;PMS_P2;Temp;Humidity;BMP_temperature;BMP_pressure;BME280_temperature;BME280_humidity;BME280_pressure;Samples;Min_cycle;Max_cycle;Signal;HPM_P1;HPM_P2
2022/05/01 00:01:17;;;;;;;13.30;12.00;;;9.10;99.90;;;;;;5051037;28;20182;-64
2022/05/01 00:03:43;;;;;;;13.40;12.03;;;9.10;99.90;;;;;;5051074;28;20263;-64
2022/05/01 00:06:10;;;;;;;14.00;12.00;;;9.10;99.90;;;;;;5050553;28;20644;-64
2022/05/01 00:08:41;;;;;;;12.63;11.13;;;9.20;99.90;;;;;;5051362;28;20702;-64
2022/05/01 00:11:10;;;;;;;12.97;11.77;;;9.10;99.90;;;;;;5051433;28;20178;-64
2022/05/01 00:13:36;;;;;;;13.43;12.03;;;9.10;99.90;;;;;;5050939;28;20210;-64
2022/05/01 00:16:02;;;;;;;13.17;11.87;;;9.20;99.90;;;;;;5050941;28;20222;-64
2022/05/01 00:18:28;;;;;;;15.20;11.83;;;9.10;99.90;;;;;;5051162;28;20174;-65
2022/05/01 00:20:54;;;;;;;13.97;11.77;;;9.10;99.90;;;;;;5051204;28;20227;-64
2022/05/01 00:23:20;;;;;;;13.07;11.07;;;9.10;99.90;;;;;;5051044;28;20205;-64
2022/05/01 00:25:46;;;;;;;13.73;12.40;;;9.10;99.90;;;;;;5050838;28;20217;-65
2022/05/01 00:28:13;;;;;;;20.93;12.13;;;9.10;99.90;;;;;;5051356;28;20174;-64
2022/05/01 00:30:40;;;;;;;12.67;11.47;;;9.10;99.90;;;;;;5051151;28;20221;-64
2022/05/01 00:38:35;;;;;;;15.33;12.53;;;9.00;99.90;;;;;;5031412;28;20194;-65
2022/05/01 00:41:04;;;;;;;12.93;11.53;;;8.90;99.90;;;;;;5031355;28;20180;-64
2022/05/01 00:43:30;;;;;;;14.53;11.53;;;8.80;99.90;;;;;;5031185;28;20187;-64
2022/05/01 00:45:56;;;;;;;14.10;12.67;;;8.80;99.90;;;;;;5030787;28;20676;-64
2022/05/01 00:48:22;;;;;;;14.00;12.40;;;8.70;99.90;;;;;;5049862;28;20216;-64
2022/05/01 00:50:47;;;;;;;16.57;12.03;;;8.70;99.90;;;;;;5051056;28;20543;-64
2022/05/01 00:53:13;;;;;;;14.60;12.27;;;8.60;99.90;;;;;;5050788;28;20183;-64
2022/05/01 00:55:39;;;;;;;14.30;11.70;;;8.60;99.90;;;;;;5050350;28;20167;-64
2022/05/01 00:58:06;;;;;;;18.57;12.97;;;8.60;99.90;;;;;;5050587;28;20179;-64
2022/05/01 01:00:33;;;;;;;13.87;12.33;;;8.50;99.90;;;;;;5069837;28;20271;-64
2022/05/01 01:02:59;;;;;;;13.30;11.97;;;8.50;99.90;;;;;;5070902;28;20210;-64
2022/05/01 01:05:25;;;;;;;14.30;12.90;;;8.50;99.90;;;;;;5057590;28;20299;-64
2022/05/01 01:07:50;;;;;;;14.73;13.13;;;8.40;99.90;;;;;;5050598;28;20201;-64
2022/05/01 01:10:16;;;;;;;13.37;12.03;;;8.40;99.90;;;;;;5050467;28;20187;-64
2022/05/01 01:12:54;;;;;;;16.37;13.03;;;8.40;99.90;;;;;;5050854;28;20175;-64
2022/05/01 01:15:28;;;;;;;20.00;13.27;;;8.30;99.90;;;;;;5048970;28;20191;-64
2022/05/01 01:17:55;;;;;;;16.47;12.30;;;8.20;99.90;;;;;;5050668;28;20573;-64
2022/05/01 01:20:28;;;;;;;17.73;13.33;;;8.20;99.90;;;;;;5050712;28;20245;-64
2022/05/01 01:22:56;;;;;;;17.67;12.60;;;8.10;99.90;;;;;;5052239;28;20527;-64
2022/05/01 01:25:30;;;;;;;19.73;13.17;;;8.00;99.90;;;;;;5053661;28;20211;-64
2022/05/01 01:28:02;;;;;;;15.27;13.67;;;8.00;99.90;;;;;;5053901;28;20548;-64
2022/05/01 01:33:25;;;;;;;13.47;12.13;;;7.90;99.90;;;;;;5054258;28;20217;-64
2022/05/01 01:35:51;;;;;;;18.00;13.83;;;7.90;99.90;;;;;;5053503;28;20629;-64
2022/05/01 01:38:18;;;;;;;18.60;14.87;;;7.90;99.90;;;;;;5053908;28;20561;-64
2022/05/01 01:40:54;;;;;;;15.87;13.70;;;7.90;99.90;;;;;;5054202;28;20210;-64
2022/05/01 01:43:27;;;;;;;17.57;15.37;;;7.90;99.90;;;;;;5053888;28;20261;-64
2022/05/01 01:45:54;;;;;;;20.23;14.70;;;7.90;99.90;;;;;;5051859;28;20762;-64
2022/05/01 01:48:21;;;;;;;17.10;14.67;;;7.90;99.90;;;;;;5053624;28;20214;-64
2022/05/01 01:51:02;;;;;;;15.70;14.20;;;7.90;99.90;;;;;;5053782;28;20252;-64
2022/05/01 01:53:29;;;;;;;18.90;15.33;;;7.90;99.90;;;;;;5053735;28;20292;-64
2022/05/01 01:55:57;;;;;;;19.93;14.33;;;7.90;99.90;;;;;;5053119;28;20202;-64
2022/05/01 01:58:23;;;;;;;16.47;14.77;;;7.80;99.90;;;;;;5053520;28;20229;-65
2022/05/01 02:00:49;;;;;;;18.17;14.27;;;7.80;99.90;;;;;;5053313;28;20212;-64
2022/05/01 02:03:15;;;;;;;16.33;14.63;;;7.80;99.90;;;;;;5053602;28;20745;-64
2022/05/01 02:05:41;;;;;;;19.10;14.93;;;7.90;99.90;;;;;;5051848;28;20309;-64
2022/05/01 02:08:07;;;;;;;17.27;15.10;;;7.90;99.90;;;;;;5053475;28;20266;-64
2022/05/01 02:10:34;;;;;;;16.97;15.17;;;7.90;99.90;;;;;;5053260;28;20241;-64
2022/05/01 02:13:02;;;;;;;19.33;14.40;;;7.90;99.90;;;;;;5053453;28;20179;-64
2022/05/01 02:15:30;;;;;;;17.83;15.73;;;7.90;99.90;;;;;;5052967;28;20823;-65
2022/05/01 02:17:58;;;;;;;17.00;14.60;;;7.90;99.90;;;;;;5053171;28;20205;-65
2022/05/01 02:20:25;;;;;;;19.10;14.83;;;8.00;99.90;;;;;;5051937;28;20175;-64
2022/05/01 02:22:52;;;;;;;19.27;15.47;;;8.00;99.90;;;;;;5053150;28;20175;-65
2022/05/01 02:25:20;;;;;;;17.90;14.57;;;8.00;99.90;;;;;;5052675;28;20293;-65
2022/05/01 02:27:45;;;;;;;18.57;14.07;;;8.00;99.90;;;;;;5032900;28;20196;-65
2022/05/01 02:30:11;;;;;;;21.97;16.67;;;8.00;99.90;;;;;;5033314;28;20176;-65
2022/05/01 02:32:38;;;;;;;20.20;14.10;;;8.10;99.90;;;;;;5051724;28;20179;-65
2022/05/01 02:35:05;;;;;;;16.57;14.73;;;8.00;99.90;;;;;;5051935;28;20175;-64
2022/05/01 02:37:31;;;;;;;17.07;14.90;;;8.00;99.90;;;;;;5052486;28;20584;-65
2022/05/01 02:39:57;;;;;;;19.37;16.07;;;7.90;99.90;;;;;;5052476;28;20185;-64
2022/05/01 02:42:22;;;;;;;18.57;14.90;;;8.00;99.90;;;;;;5051684;28;20583;-65
2022/05/01 02:44:48;;;;;;;19.20;15.23;;;7.90;99.90;;;;;;5052201;28;20207;-64
2022/05/01 02:47:14;;;;;;;19.37;16.00;;;7.90;99.90;;;;;;5052674;28;20186;-65
2022/05/01 02:49:40;;;;;;;20.70;16.27;;;7.90;99.90;;;;;;5052299;28;20186;-64
2022/05/01 02:52:07;;;;;;;18.33;15.43;;;7.80;99.90;;;;;;5052710;28;20580;-64
2022/05/01 02:54:33;;;;;;;19.10;16.23;;;7.80;99.90;;;;;;5052011;28;20179;-64
2022/05/01 02:56:59;;;;;;;23.00;16.33;;;7.90;99.90;;;;;;5052235;28;20244;-64
2022/05/01 02:59:24;;;;;;;18.70;16.50;;;7.90;99.90;;;;;;5052370;28;20269;-64
2022/05/01 03:01:50;;;;;;;23.70;15.47;;;7.80;99.90;;;;;;5052367;28;20365;-64
2022/05/01 03:04:16;;;;;;;20.13;17.03;;;7.90;99.90;;;;;;5052425;28;20662;-64
2022/05/01 03:06:41;;;;;;;21.00;15.73;;;7.90;99.90;;;;;;5051803;28;20205;-64
2022/05/01 03:09:10;;;;;;;19.60;16.43;;;7.90;99.90;;;;;;5052150;28;20175;-64
2022/05/01 03:11:36;;;;;;;17.97;16.07;;;7.90;99.90;;;;;;5052032;28;20183;-64
2022/05/01 03:14:03;;;;;;;22.93;16.77;;;7.90;99.90;;;;;;5052164;28;20177;-64
2022/05/01 03:16:29;;;;;;;18.00;16.07;;;7.90;99.90;;;;;;5051913;28;20687;-64
2022/05/01 03:24:31;;;;;;;21.40;17.23;;;8.00;99.90;;;;;;5035821;28;20182;-64
2022/05/01 03:26:57;;;;;;;19.20;17.13;;;8.00;99.90;;;;;;5051748;28;20198;-64
2022/05/01 03:29:23;;;;;;;21.13;18.27;;;8.00;99.90;;;;;;5052144;28;20179;-64
2022/05/01 03:31:50;;;;;;;21.30;19.03;;;8.10;99.90;;;;;;5051559;28;20225;-65
2022/05/01 03:34:19;;;;;;;20.47;18.27;;;8.10;99.90;;;;;;5051665;28;20178;-65
2022/05/01 03:36:50;;;;;;;21.93;19.43;;;8.10;99.90;;;;;;5051832;28;20210;-65
2022/05/01 03:39:16;;;;;;;21.40;17.77;;;8.00;99.90;;;;;;5051678;28;20645;-65
2022/05/01 03:41:42;;;;;;;21.90;17.67;;;8.00;99.90;;;;;;5051695;28;20659;-65
2022/05/01 03:44:08;;;;;;;22.30;18.47;;;8.00;99.90;;;;;;5051936;28;20162;-65
2022/05/01 03:46:40;;;;;;;22.83;18.77;;;8.00;99.90;;;;;;5051144;28;20237;-64
2022/05/01 03:49:06;;;;;;;23.80;19.97;;;8.00;99.90;;;;;;5052259;28;20175;-65
2022/05/01 03:51:33;;;;;;;24.57;20.23;;;8.00;99.90;;;;;;5050562;28;20182;-64
2022/05/01 03:54:03;;;;;;;24.40;19.63;;;8.10;99.90;;;;;;5050712;28;20202;-65
2022/05/01 03:56:30;;;;;;;22.27;17.53;;;8.20;99.90;;;;;;5050369;28;20256;-64
2022/05/01 03:58:56;;;;;;;22.67;17.97;;;8.20;99.90;;;;;;5050771;28;20190;-64
2022/05/01 04:01:25;;;;;;;21.40;18.30;;;8.30;99.90;;;;;;5051464;28;20210;-64
2022/05/01 04:03:51;;;;;;;23.17;18.83;;;8.40;99.90;;;;;;5051514;28;20186;-66
2022/05/01 04:06:17;;;;;;;21.13;17.07;;;8.50;99.90;;;;;;5049686;28;20220;-65
2022/05/01 04:08:43;;;;;;;21.57;17.03;;;8.50;99.90;;;;;;5050240;28;20232;-64
2022/05/01 04:11:10;;;;;;;21.90;18.80;;;8.60;99.90;;;;;;5050387;28;20179;-65
2022/05/01 04:13:36;;;;;;;24.83;18.50;;;8.60;99.90;;;;;;5050339;28;20210;-66
2022/05/01 04:16:04;;;;;;;19.87;17.67;;;8.60;99.90;;;;;;5049924;28;20199;-65
2022/05/01 04:18:31;;;;;;;28.67;19.63;;;8.70;99.90;;;;;;5050175;28;20210;-66
2022/05/01 04:20:58;;;;;;;19.53;16.83;;;8.70;99.90;;;;;;5051992;28;20185;-65
2022/05/01 04:23:24;;;;;;;20.93;17.67;;;8.80;99.90;;;;;;5031754;28;20225;-65
2022/05/01 04:25:50;;;;;;;21.60;17.43;;;8.90;99.90;;;;;;5029894;28;20258;-65
2022/05/01 04:28:16;;;;;;;24.03;17.83;;;8.90;99.90;;;;;;5050529;28;20618;-65
2022/05/01 04:30:43;;;;;;;19.57;16.70;;;9.00;99.90;;;;;;5051543;28;20251;-66
2022/05/01 04:33:10;;;;;;;21.67;16.70;;;9.10;99.90;;;;;;5051263;28;20586;-65
2022/05/01 04:35:40;;;;;;;22.37;16.23;;;9.10;99.90;;;;;;5051049;28;20308;-65
2022/05/01 04:38:09;;;;;;;22.90;16.83;;;9.20;99.90;;;;;;5049828;28;20182;-65
2022/05/01 04:40:43;;;;;;;21.87;16.57;;;9.20;99.90;;;;;;5051629;28;20587;-65
2022/05/01 04:43:11;;;;;;;19.27;16.30;;;9.30;99.90;;;;;;5049808;28;20197;-65
2022/05/01 04:45:38;;;;;;;21.83;16.03;;;9.40;99.90;;;;;;5049852;28;20347;-65
2022/05/01 04:48:05;;;;;;;24.00;15.27;;;9.50;99.90;;;;;;5051117;28;20171;-65
2022/05/01 04:50:31;;;;;;;20.13;16.10;;;9.60;99.90;;;;;;5051447;28;20178;-65
2022/05/01 04:53:00;;;;;;;19.90;15.60;;;9.70;99.90;;;;;;5049882;28;20643;-65
2022/05/01 04:55:29;;;;;;;19.83;14.83;;;9.90;99.90;;;;;;5050869;28;20178;-65
2022/05/01 04:57:55;;;;;;;16.83;15.03;;;10.00;99.90;;;;;;5051382;28;20179;-65
2022/05/01 05:00:21;;;;;;;22.63;15.87;;;10.10;99.90;;;;;;5053567;28;20216;-65
2022/05/01 05:02:55;;;;;;;19.80;15.10;;;10.10;99.90;;;;;;5067964;28;20174;-66
2022/05/01 05:05:22;;;;;;;16.80;15.07;;;10.20;99.90;;;;;;5074912;28;20233;-65
2022/05/01 05:07:48;;;;;;;16.10;14.20;;;10.20;99.90;;;;;;5073505;28;20202;-65
2022/05/01 05:10:15;;;;;;;17.77;13.97;;;10.40;99.90;;;;;;5065348;28;20258;-67
2022/05/01 05:12:43;;;;;;;20.23;15.27;;;10.50;99.90;;;;;;5054855;28;20638;-65
2022/05/01 05:15:11;;;;;;;20.00;14.40;;;10.60;99.90;;;;;;5053074;28;20182;-65
2022/05/01 05:17:38;;;;;;;17.63;15.23;;;10.70;99.90;;;;;;5053742;28;20567;-66
2022/05/01 05:20:09;;;;;;;20.43;15.07;;;10.80;99.90;;;;;;5053342;28;20182;-66
2022/05/01 05:22:35;;;;;;;15.30;13.37;;;10.90;99.90;;;;;;5053511;28;20175;-66
2022/05/01 05:25:02;;;;;;;24.97;14.97;;;10.90;99.90;;;;;;5052928;28;20210;-65
2022/05/01 05:27:28;;;;;;;20.43;14.87;;;11.10;99.90;;;;;;5054680;28;20247;-66
2022/05/01 05:29:55;;;;;;;17.53;14.50;;;11.20;99.90;;;;;;5052941;28;20547;-66
2022/05/01 05:32:22;;;;;;;18.33;13.80;;;11.30;99.90;;;;;;5053470;28;20183;-65
2022/05/01 05:34:48;;;;;;;15.23;13.30;;;11.40;99.90;;;;;;5053801;28;20183;-65
2022/05/01 05:37:14;;;;;;;17.07;14.53;;;11.60;99.90;;;;;;5034221;28;20635;-66
2022/05/01 05:39:40;;;;;;;17.07;14.17;;;11.80;99.90;;;;;;5049951;28;20244;-64
2022/05/01 05:42:06;;;;;;;14.83;12.47;;;12.10;99.90;;;;;;5052717;28;20179;-66
2022/05/01 05:44:32;;;;;;;16.30;13.00;;;12.30;99.90;;;;;;5053411;28;20644;-65
2022/05/01 05:46:57;;;;;;;16.97;13.40;;;12.40;99.90;;;;;;5053751;28;20199;-66
2022/05/01 05:49:23;;;;;;;15.37;12.67;;;12.50;99.90;;;;;;5053701;28;20233;-65
2022/05/01 05:51:48;;;;;;;14.60;13.17;;;12.50;99.90;;;;;;5053694;28;20203;-66
2022/05/01 05:54:14;;;;;;;15.43;12.83;;;12.80;99.90;;;;;;5051909;28;20183;-65
2022/05/01 05:56:39;;;;;;;19.50;12.27;;;13.00;99.90;;;;;;5053108;28;20202;-66
2022/05/01 05:59:05;;;;;;;15.03;13.37;;;13.30;99.90;;;;;;5053449;28;20189;-65
2022/05/01 06:01:31;;;;;;;16.07;12.57;;;13.30;99.90;;;;;;5053252;28;20183;-66
2022/05/01 06:03:56;;;;;;;15.07;12.53;;;13.60;99.90;;;;;;5053216;28;20202;-66
2022/05/01 06:06:22;;;;;;;19.13;13.40;;;13.60;99.90;;;;;;5052302;28;20255;-64
2022/05/01 06:08:48;;;;;;;15.60;12.63;;;13.50;99.90;;;;;;5052919;28;20202;-67
2022/05/01 06:11:13;;;;;;;13.27;11.97;;;13.20;99.90;;;;;;5053151;28;20273;-65
2022/05/01 06:13:39;;;;;;;14.33;12.83;;;12.90;99.90;;;;;;5053178;28;20652;-66
2022/05/01 06:16:05;;;;;;;15.70;12.87;;;12.90;99.90;;;;;;5052148;28;20332;-65
2022/05/01 06:18:31;;;;;;;17.57;13.33;;;12.80;99.90;;;;;;5053070;28;20194;-65
2022/05/01 06:20:59;;;;;;;14.93;12.70;;;12.90;99.90;;;;;;5052990;28;20175;-65
2022/05/01 06:23:25;;;;;;;13.20;11.80;;;13.30;99.90;;;;;;5053206;28;20182;-65
2022/05/01 06:25:51;;;;;;;15.97;12.37;;;13.70;99.90;;;;;;5051913;28;20627;-66
2022/05/01 06:28:17;;;;;;;18.57;12.80;;;13.80;99.90;;;;;;5053127;28;20175;-66
2022/05/01 06:30:45;;;;;;;14.37;12.93;;;13.70;99.90;;;;;;5052647;28;20265;-65
2022/05/01 06:33:14;;;;;;;13.53;12.23;;;13.60;99.90;;;;;;5033130;28;20171;-65
2022/05/01 06:35:40;;;;;;;13.73;12.30;;;13.70;99.90;;;;;;5050596;28;20183;-65
2022/05/01 06:38:07;;;;;;;16.23;12.80;;;13.90;99.90;;;;;;5052827;28;20170;-64
2022/05/01 06:40:33;;;;;;;13.77;11.43;;;14.20;99.90;;;;;;5052293;28;20277;-65
2022/05/01 06:42:59;;;;;;;12.37;11.07;;;14.70;99.90;;;;;;5052954;28;20214;-65
2022/05/01 06:45:25;;;;;;;12.20;10.90;;;15.30;99.90;;;;;;5051975;28;20563;-65
2022/05/01 06:47:51;;;;;;;13.23;11.73;;;15.60;99.90;;;;;;5052496;28;20190;-67
2022/05/01 06:50:16;;;;;;;12.33;10.63;;;15.90;99.90;;;;;;5052474;28;20178;-66
2022/05/01 06:52:42;;;;;;;14.87;11.07;;;16.40;99.90;;;;;;5052633;28;20581;-66
2022/05/01 06:55:09;;;;;;;11.60;10.40;;;17.00;99.90;;;;;;5050704;28;20186;-65
2022/05/01 06:57:34;;;;;;;12.03;10.73;;;17.50;99.90;;;;;;5052616;28;20198;-66
2022/05/01 07:00:00;;;;;;;13.33;10.87;;;17.60;99.90;;;;;;5052214;28;20190;-66
2022/05/01 07:02:26;;;;;;;12.73;10.43;;;17.60;99.90;;;;;;5052152;28;20261;-64
2022/05/01 07:04:51;;;;;;;11.83;10.57;;;17.70;99.90;;;;;;5051935;28;20214;-64
2022/05/01 07:07:17;;;;;;;10.43;9.33;;;18.00;99.90;;;;;;5051972;28;20215;-66
2022/05/01 07:09:43;;;;;;;11.03;9.73;;;18.10;99.90;;;;;;5052201;28;20167;-66
2022/05/01 07:12:10;;;;;;;11.40;10.20;;;18.20;99.90;;;;;;5051915;28;20179;-66
2022/05/01 07:14:38;;;;;;;11.13;10.03;;;18.30;99.90;;;;;;5051802;28;20179;-66
2022/05/01 07:17:03;;;;;;;11.57;10.43;;;18.60;99.90;;;;;;5051722;28;20195;-66
2022/05/01 07:19:29;;;;;;;10.93;9.63;;;18.90;99.90;;;;;;5051982;28;20187;-66
2022/05/01 07:21:55;;;;;;;13.10;10.27;;;19.30;99.90;;;;;;5050428;28;20577;-66
2022/05/01 07:24:20;;;;;;;12.40;10.80;;;19.70;99.90;;;;;;5051002;28;20183;-64
2022/05/01 07:26:46;;;;;;;12.13;10.70;;;19.90;99.90;;;;;;5051555;28;20672;-66
2022/05/01 07:29:12;;;;;;;12.30;9.80;;;19.70;99.90;;;;;;5051539;28;20183;-66
2022/05/01 07:31:37;;;;;;;12.27;10.97;;;19.60;99.90;;;;;;5051910;28;20770;-66
2022/05/01 07:34:03;;;;;;;11.40;10.30;;;19.50;99.90;;;;;;5051645;28;20198;-66
2022/05/01 07:36:28;;;;;;;10.60;9.60;;;19.90;99.90;;;;;;5050372;28;20226;-66
2022/05/01 07:38:54;;;;;;;10.90;9.80;;;20.30;99.90;;;;;;5052134;28;20182;-64
2022/05/01 07:41:20;;;;;;;12.15;10.75;;;20.50;99.90;;;;;;5051661;28;20222;-64
2022/05/01 07:43:46;;;;;;;12.15;10.82;;;20.40;99.90;;;;;;5051625;28;20174;-64
2022/05/01 07:46:12;;;;;;;11.23;10.10;;;20.60;99.90;;;;;;5050327;28;20246;-65
2022/05/01 07:48:38;;;;;;;12.23;10.32;;;21.00;99.90;;;;;;5051407;28;20262;-64
2022/05/01 07:51:04;;;;;;;10.85;9.75;;;20.70;99.90;;;;;;5051427;28;20266;-66
2022/05/01 07:53:30;;;;;;;11.67;10.47;;;20.10;99.90;;;;;;5051656;28;20163;-64
2022/05/01 07:55:58;;;;;;;10.73;9.70;;;20.10;99.90;;;;;;5050884;28;20272;-66
2022/05/01 07:58:24;;;;;;;10.80;9.80;;;20.20;99.90;;;;;;5051515;28;20763;-66
2022/05/01 08:00:50;;;;;;;15.30;9.73;;;20.00;99.90;;;;;;5051435;28;20261;-66
2022/05/01 08:06:00;;;;;;;12.00;9.63;;;19.80;99.90;;;;;;5051748;28;20217;-66
2022/05/01 08:08:26;;;;;;;11.20;10.20;;;20.00;99.90;;;;;;5049017;28;20178;-66
2022/05/01 08:10:52;;;;;;;12.07;10.30;;;19.90;99.90;;;;;;5051207;28;20628;-66
2022/05/01 08:13:17;;;;;;;10.93;9.75;;;19.80;99.90;;;;;;5051038;28;20182;-66
2022/05/01 08:15:43;;;;;;;10.98;9.98;;;20.00;99.90;;;;;;5050748;28;20177;-66
2022/05/01 08:21:09;;;;;;;10.27;9.27;;;20.40;99.90;;;;;;5050045;28;20267;-66
2022/05/01 08:23:36;;;;;;;10.67;9.60;;;20.20;99.90;;;;;;5050543;28;20261;-66
2022/05/01 08:26:03;;;;;;;12.07;10.27;;;19.80;99.90;;;;;;5050832;28;20277;-66
2022/05/01 08:28:31;;;;;;;9.70;8.80;;;19.60;99.90;;;;;;5051058;28;20236;-64
2022/05/01 08:30:57;;;;;;;12.47;10.07;;;19.70;99.90;;;;;;5051080;28;20199;-64
2022/05/01 08:33:22;;;;;;;10.40;9.17;;;19.60;99.90;;;;;;5053124;28;20205;-64
2022/05/01 08:35:49;;;;;;;10.97;9.90;;;19.50;99.90;;;;;;5054506;28;20179;-66
2022/05/01 08:38:14;;;;;;;11.47;9.70;;;19.40;99.90;;;;;;5054781;28;20174;-67
2022/05/01 08:40:40;;;;;;;11.93;9.73;;;19.60;99.90;;;;;;5051378;28;20320;-66
2022/05/01 08:43:06;;;;;;;10.70;9.30;;;20.10;99.90;;;;;;5053909;28;20183;-66
2022/05/01 08:45:45;;;;;;;10.40;9.30;;;20.50;99.90;;;;;;5054417;28;20208;-66
2022/05/01 08:48:15;;;;;;;11.33;10.23;;;20.90;99.90;;;;;;5054979;28;20213;-64
2022/05/01 08:50:41;;;;;;;11.77;10.57;;;20.70;99.90;;;;;;5054873;28;20556;-64
2022/05/01 08:53:08;;;;;;;12.47;11.17;;;20.60;99.90;;;;;;5055112;28;20178;-66
2022/05/01 08:55:34;;;;;;;11.70;10.60;;;20.60;99.90;;;;;;5053760;28;20190;-66
2022/05/01 08:58:00;;;;;;;11.77;10.60;;;20.60;99.90;;;;;;5054665;28;20535;-66
2022/05/01 09:00:27;;;;;;;11.67;10.47;;;20.40;99.90;;;;;;5054831;28;20166;-66
2022/05/01 09:02:52;;;;;;;11.17;10.07;;;20.40;99.90;;;;;;5054622;28;20613;-66
2022/05/01 09:05:18;;;;;;;12.87;10.57;;;20.70;99.90;;;;;;5054431;28;20241;-66
2022/05/01 09:07:44;;;;;;;14.17;11.07;;;21.00;99.90;;;;;;5054345;28;20616;-65
2022/05/01 09:10:10;;;;;;;12.38;11.15;;;21.30;99.90;;;;;;5054775;28;20167;-64
2022/05/01 09:12:52;;;;;;;13.23;10.18;;;21.60;99.90;;;;;;5052673;28;20179;-64
2022/05/01 09:15:46;;;;;;;12.32;11.13;;;22.00;99.90;;;;;;5054064;28;20179;-64
2022/05/01 09:18:14;;;;;;;13.40;10.93;;;21.60;99.90;;;;;;5041207;28;20625;-64
2022/05/01 09:21:07;;;;;;;11.18;9.98;;;21.40;99.90;;;;;;5054312;28;20171;-66
2022/05/01 09:23:46;;;;;;;12.18;10.65;;;20.90;99.90;;;;;;5053061;28;20225;-66
2022/05/01 09:26:14;;;;;;;11.70;10.43;;;21.00;99.90;;;;;;5053809;28;20232;-66
2022/05/01 09:28:47;;;;;;;15.50;12.03;;;20.50;99.90;;;;;;5054341;28;20182;-65
2022/05/01 09:31:12;;;;;;;14.00;11.77;;;20.10;99.90;;;;;;5054441;28;20175;-66
2022/05/01 09:33:39;;;;;;;11.47;10.30;;;19.70;99.90;;;;;;5054091;28;20586;-66
2022/05/01 09:36:05;;;;;;;12.50;10.20;;;19.50;99.90;;;;;;5054114;28;20233;-66
2022/05/01 09:38:31;;;;;;;12.60;11.30;;;19.20;99.90;;;;;;5054107;28;20170;-65
2022/05/01 09:41:01;;;;;;;12.20;10.97;;;18.80;99.90;;;;;;5054034;28;20175;-66
2022/05/01 09:43:37;;;;;;;13.93;11.27;;;18.70;99.90;;;;;;5050276;28;20171;-66
2022/05/01 09:46:23;;;;;;;13.83;12.43;;;18.60;99.90;;;;;;5053241;28;20281;-66
2022/05/01 09:49:03;;;;;;;15.53;11.93;;;18.30;99.90;;;;;;5053767;28;20209;-66
2022/05/01 09:51:34;;;;;;;13.20;11.80;;;18.30;99.90;;;;;;5053864;28;20544;-66
2022/05/01 09:54:04;;;;;;;12.80;11.47;;;18.30;99.90;;;;;;5053663;28;20221;-63
2022/05/01 09:56:43;;;;;;;13.63;12.17;;;18.50;99.90;;;;;;5052667;28;20187;-65
2022/05/01 09:59:09;;;;;;;12.40;11.10;;;18.70;99.90;;;;;;5053771;28;20660;-66
2022/05/01 10:01:34;;;;;;;12.30;11.00;;;19.00;99.90;;;;;;5053552;28;20181;-64
2022/05/01 10:04:02;;;;;;;14.20;12.03;;;19.30;99.90;;;;;;5053507;28;20591;-64
2022/05/01 10:06:30;;;;;;;12.97;9.80;;;19.50;99.90;;;;;;5052756;28;20687;-64
2022/05/01 10:08:56;;;;;;;12.57;11.27;;;19.70;99.90;;;;;;5052628;28;20706;-64
2022/05/01 10:11:23;;;;;;;12.73;11.43;;;19.80;99.90;;;;;;5051868;28;20181;-64
2022/05/01 10:13:49;;;;;;;12.97;11.67;;;20.00;99.90;;;;;;5051641;28;20213;-65
2022/05/01 10:16:17;;;;;;;19.10;12.97;;;20.10;99.90;;;;;;5050286;28;20643;-64
2022/05/01 10:18:45;;;;;;;12.37;11.00;;;19.90;99.90;;;;;;5053091;28;20211;-65
2022/05/01 10:21:12;;;;;;;12.43;11.20;;;19.90;99.90;;;;;;5051736;28;20220;-65
2022/05/01 10:23:39;;;;;;;12.30;11.00;;;20.20;99.90;;;;;;5053123;28;20217;-65
2022/05/01 10:26:19;;;;;;;12.70;11.40;;;20.30;99.90;;;;;;5052272;28;20206;-65
2022/05/01 10:28:50;;;;;;;15.48;11.82;;;20.60;99.90;;;;;;5053338;28;20159;-67
2022/05/01 10:35:12;;;;;;;13.33;11.27;;;21.40;99.90;;;;;;5052765;28;20550;-66
2022/05/01 10:38:06;;;;;;;15.63;10.77;;;21.70;99.90;;;;;;5052581;28;20214;-66
2022/05/01 10:41:11;;;;;;;12.25;10.55;;;21.70;99.90;;;;;;5052665;28;20175;-66
2022/05/01 10:43:38;;;;;;;11.97;10.70;;;21.00;99.90;;;;;;5010562;28;20172;-64
2022/05/01 10:46:25;;;;;;;12.67;11.43;;;20.70;99.90;;;;;;4989927;28;20220;-64
2022/05/01 10:48:50;;;;;;;13.00;11.30;;;20.70;99.90;;;;;;5017527;28;20707;-64
2022/05/01 10:51:29;;;;;;;13.90;11.50;;;20.60;99.90;;;;;;5052591;28;20259;-64
2022/05/01 10:54:10;;;;;;;12.80;11.52;;;20.40;99.90;;;;;;5052254;28;20664;-65
2022/05/01 10:56:37;;;;;;;11.33;10.23;;;20.50;99.90;;;;;;5051231;28;20200;-65
2022/05/01 10:59:31;;;;;;;11.70;10.50;;;20.40;99.90;;;;;;5052084;28;20222;-64
2022/05/01 11:02:01;;;;;;;12.37;11.10;;;20.60;99.90;;;;;;5052231;28;20175;-64
2022/05/01 11:04:38;;;;;;;11.60;10.07;;;20.80;99.90;;;;;;5047451;28;20192;-66
2022/05/01 11:07:05;;;;;;;11.25;10.10;;;21.50;99.90;;;;;;5032322;28;20227;-66
2022/05/01 11:09:36;;;;;;;13.75;11.20;;;22.50;99.90;;;;;;5039555;28;20186;-65
2022/05/01 11:12:02;;;;;;;11.48;10.27;;;23.20;99.50;;;;;;5051756;28;20171;-65
2022/05/01 11:14:49;;;;;;;14.23;10.45;;;23.50;98.50;;;;;;5052017;28;20175;-65
2022/05/01 11:17:15;;;;;;;12.20;10.82;;;23.10;98.60;;;;;;5051963;28;20194;-66
2022/05/01 11:19:50;;;;;;;11.75;10.55;;;23.10;98.30;;;;;;5052088;28;20171;-65
2022/05/01 11:22:16;;;;;;;10.50;9.50;;;23.10;98.40;;;;;;5050592;28;20193;-64
2022/05/01 11:24:43;;;;;;;11.25;10.15;;;22.90;97.20;;;;;;5051608;28;20629;-64
2022/05/01 11:27:16;;;;;;;11.63;10.43;;;22.80;99.40;;;;;;5051568;28;20222;-67
2022/05/01 11:30:06;;;;;;;12.43;10.52;;;22.70;97.60;;;;;;5051840;28;20171;-66
2022/05/01 11:32:49;;;;;;;12.38;11.10;;;22.60;97.30;;;;;;5051591;28;20174;-65
2022/05/01 11:35:16;;;;;;;12.80;10.80;;;22.10;98.10;;;;;;5051778;28;20640;-65
2022/05/01 11:38:09;;;;;;;12.20;10.88;;;21.80;98.90;;;;;;5042840;28;20226;-65
2022/05/01 11:40:35;;;;;;;13.23;11.98;;;21.80;98.10;;;;;;5036624;28;20255;-67
2022/05/01 11:43:20;;;;;;;12.93;10.93;;;21.80;98.60;;;;;;5048420;28;20186;-65
2022/05/01 11:45:47;;;;;;;12.57;11.13;;;21.50;98.00;;;;;;5050876;28;20190;-65
2022/05/01 11:48:14;;;;;;;13.20;11.07;;;21.40;98.00;;;;;;5051422;28;20570;-65
2022/05/01 11:50:41;;;;;;;14.43;12.25;;;21.40;99.50;;;;;;5051869;28;20648;-66
2022/05/01 11:53:24;;;;;;;16.35;12.18;;;21.30;99.10;;;;;;5051733;28;20632;-66
2022/05/01 12:04:32;;;;;;;11.75;10.43;;;20.70;99.70;;;;;;5051308;28;20236;-65
2022/05/01 12:06:58;;;;;;;12.32;11.10;;;20.90;99.90;;;;;;5050773;28;20680;-65
2022/05/01 12:09:28;;;;;;;11.85;10.40;;;21.20;99.90;;;;;;5049504;28;20182;-66
2022/05/01 12:11:54;;;;;;;11.77;9.90;;;21.90;99.90;;;;;;5051006;28;20295;-66
2022/05/01 12:14:20;;;;;;;12.13;10.82;;;22.20;97.50;;;;;;5049799;28;20642;-67
2022/05/01 12:16:46;;;;;;;12.02;10.82;;;22.60;99.40;;;;;;5050502;28;20202;-67
2022/05/01 12:19:12;;;;;;;10.50;9.43;;;23.10;99.90;;;;;;5051341;28;20715;-67
2022/05/01 12:21:38;;;;;;;11.77;10.45;;;23.40;97.20;;;;;;5050870;28;20269;-67
2022/05/01 12:24:06;;;;;;;10.82;9.75;;;23.60;98.90;;;;;;5051304;28;20192;-67
2022/05/01 12:26:37;;;;;;;10.50;9.50;;;23.90;98.30;;;;;;5050487;28;20614;-66
2022/05/01 12:29:07;;;;;;;10.98;9.88;;;23.30;96.20;;;;;;5051173;28;20261;-67
2022/05/01 12:31:53;;;;;;;11.05;9.95;;;22.50;98.60;;;;;;5050864;28;20233;-66
2022/05/01 12:34:27;;;;;;;14.70;10.18;;;22.10;97.20;;;;;;5051094;28;20193;-67
2022/05/01 12:36:54;;;;;;;11.02;9.98;;;21.60;96.80;;;;;;5050371;28;20221;-66
2022/05/01 12:39:22;;;;;;;11.82;10.55;;;21.30;98.00;;;;;;5051348;28;20179;-66
2022/05/01 12:45:05;;;;;;;13.57;11.53;;;20.70;99.50;;;;;;5050774;28;20592;-66
2022/05/01 12:47:36;;;;;;;13.77;11.70;;;20.40;97.90;;;;;;5050550;28;20191;-65
2022/05/01 12:50:10;;;;;;;13.23;11.10;;;20.30;99.10;;;;;;5051119;28;20174;-66
2022/05/01 12:52:38;;;;;;;12.60;11.13;;;20.40;99.90;;;;;;5051023;28;20181;-65
2022/05/01 12:55:07;;;;;;;12.43;11.20;;;20.60;99.90;;;;;;5046312;28;20174;-66
2022/05/01 12:57:40;;;;;;;13.07;11.67;;;20.30;99.50;;;;;;5049902;28;20195;-66
2022/05/01 13:00:06;;;;;;;14.10;12.50;;;20.10;98.60;;;;;;5050710;28;20232;-66
2022/05/01 13:02:32;;;;;;;14.93;11.80;;;20.00;99.80;;;;;;5050341;28;20597;-65
2022/05/01 13:04:58;;;;;;;18.43;12.23;;;19.80;99.90;;;;;;5060268;28;20186;-66
2022/05/01 13:07:29;;;;;;;15.20;13.47;;;19.90;99.90;;;;;;5069700;28;20194;-65
2022/05/01 13:09:54;;;;;;;15.23;13.37;;;19.80;99.90;;;;;;5070856;28;20166;-65
2022/05/01 13:12:31;;;;;;;15.47;13.10;;;19.60;99.20;;;;;;5049617;28;20670;-65